Time;durP1;ratioP1;P1;durP2;ratioP2;P2;SDS_P1;SDS_P2;PMS_P1;PMS_P2;Temp;Humidity;BMP_temperature;BMP_pressure;BME280_temperature;BME280_humidity;BME280_pressure;Samples;Min_cycle;Max_cycle;Signal;HPM_P1;HPM_P2
2022/12/13 00:01:12;;;;;;;39.40;23.30;;;-3.80;92.80;;;;;;939892;148;27432;-78
2022/12/13 00:03:38;;;;;;;42.70;24.17;;;-3.90;92.90;;;;;;938044;149;27312;-78
2022/12/13 00:06:08;;;;;;;41.73;22.73;;;-3.80;92.90;;;;;;940212;149;27305;-78
2022/12/13 00:08:34;;;;;;;35.77;22.30;;;-3.80;92.90;;;;;;939597;149;27498;-78
2022/12/13 00:11:01;;;;;;;36.27;21.67;;;-3.80;92.80;;;;;;939025;149;27801;-78
2022/12/13 00:13:27;;;;;;;41.57;24.50;;;-3.80;92.70;;;;;;937256;149;27318;-78
2022/12/13 00:15:57;;;;;;;37.97;22.37;;;-3.80;92.70;;;;;;939953;149;27342;-78
2022/12/13 00:18:23;;;;;;;44.40;24.90;;;-3.90;92.50;;;;;;937091;149;27367;-78
2022/12/13 00:20:50;;;;;;;33.93;22.17;;;-3.90;92.50;;;;;;938542;149;27362;-79
2022/12/13 00:23:17;;;;;;;32.40;20.37;;;-3.90;92.40;;;;;;938200;149;27375;-79
2022/12/13 00:25:43;;;;;;;33.83;20.40;;;-3.90;92.30;;;;;;937091;149;27895;-79
2022/12/13 00:28:10;;;;;;;33.10;20.17;;;-4.00;92.20;;;;;;938619;149;27261;-78
2022/12/13 00:30:36;;;;;;;33.03;19.77;;;-4.00;92.10;;;;;;938959;149;27370;-79
2022/12/13 00:33:03;;;;;;;27.50;18.50;;;-4.00;92.30;;;;;;937750;149;27361;-79
2022/12/13 00:35:29;;;;;;;27.20;17.93;;;-4.10;91.90;;;;;;937357;149;27986;-79
2022/12/13 00:37:56;;;;;;;27.57;16.83;;;-4.10;91.80;;;;;;938252;149;27349;-79
2022/12/13 00:40:23;;;;;;;27.50;17.83;;;-4.10;91.70;;;;;;938198;149;27859;-79
2022/12/13 00:42:49;;;;;;;36.13;19.93;;;-4.20;91.70;;;;;;936706;149;27448;-79
2022/12/13 00:45:16;;;;;;;50.83;22.07;;;-4.20;91.70;;;;;;938255;149;27475;-79
2022/12/13 00:47:43;;;;;;;28.90;17.07;;;-4.20;91.70;;;;;;937962;149;27466;-78
2022/12/13 00:50:09;;;;;;;31.17;18.40;;;-4.20;91.80;;;;;;937724;149;27309;-78
2022/12/13 00:52:36;;;;;;;33.23;19.23;;;-4.30;91.80;;;;;;937332;149;27368;-79
2022/12/13 00:55:02;;;;;;;37.17;21.10;;;-4.30;91.80;;;;;;937247;149;27415;-79
2022/12/13 00:57:29;;;;;;;32.20;19.83;;;-4.30;91.80;;;;;;939269;149;27786;-79
2022/12/13 00:59:55;;;;;;;30.50;18.43;;;-4.40;91.80;;;;;;938021;149;27373;-79
2022/12/13 01:02:22;;;;;;;29.70;19.20;;;-4.40;91.90;;;;;;937237;149;27316;-79
2022/12/13 01:04:49;;;;;;;30.17;19.30;;;-4.40;92.10;;;;;;936908;149;27271;-79
2022/12/13 01:07:15;;;;;;;28.87;18.60;;;-4.40;92.20;;;;;;936864;149;27349;-79
2022/12/13 01:09:42;;;;;;;30.30;19.47;;;-4.40;92.40;;;;;;936710;149;27415;-79
2022/12/13 01:12:10;;;;;;;33.60;19.83;;;-4.40;92.50;;;;;;936318;149;27489;-79
2022/12/13 01:14:35;;;;;;;33.33;20.90;;;-4.40;92.50;;;;;;937834;149;27349;-79
2022/12/13 01:17:02;;;;;;;34.47;20.27;;;-4.40;92.60;;;;;;937604;149;27438;-79
2022/12/13 01:19:28;;;;;;;38.73;21.20;;;-4.40;92.60;;;;;;938774;149;27314;-79
2022/12/13 01:21:55;;;;;;;30.53;19.57;;;-4.40;92.60;;;;;;938525;149;27352;-79
2022/12/13 01:24:23;;;;;;;34.50;21.30;;;-4.40;92.60;;;;;;937097;149;27381;-79
2022/12/13 01:26:48;;;;;;;36.33;19.43;;;-4.40;92.60;;;;;;937890;149;27427;-79
2022/12/13 01:29:14;;;;;;;39.10;21.73;;;-4.40;92.50;;;;;;937157;149;27351;-79
2022/12/13 01:31:41;;;;;;;34.67;20.93;;;-4.40;92.40;;;;;;939370;149;27295;-79
2022/12/13 01:34:09;;;;;;;31.43;20.33;;;-4.40;92.40;;;;;;937597;150;27676;-79
2022/12/13 01:36:34;;;;;;;35.77;20.43;;;-4.40;92.30;;;;;;939025;149;27444;-79
2022/12/13 01:39:02;;;;;;;34.13;19.83;;;-4.40;92.40;;;;;;937863;149;27526;-79
2022/12/13 01:41:27;;;;;;;30.10;19.30;;;-4.50;92.40;;;;;;937645;149;28944;-79
2022/12/13 01:43:54;;;;;;;31.50;19.07;;;-4.50;92.40;;;;;;937731;149;27303;-79
2022/12/13 01:46:21;;;;;;;28.63;17.83;;;-4.50;92.30;;;;;;937015;149;27823;-79
2022/12/13 01:48:47;;;;;;;29.30;19.13;;;-4.50;92.20;;;;;;940268;149;27279;-79
2022/12/13 01:51:14;;;;;;;33.13;19.10;;;-4.50;92.10;;;;;;935965;149;27455;-79
2022/12/13 01:53:40;;;;;;;29.60;18.60;;;-4.60;92.10;;;;;;937273;149;27476;-79
2022/12/13 01:56:07;;;;;;;30.73;19.53;;;-4.50;92.10;;;;;;938083;149;27334;-79
2022/12/13 01:58:34;;;;;;;32.87;19.97;;;-4.60;92.00;;;;;;937973;149;27291;-79
2022/12/13 02:01:00;;;;;;;33.47;20.27;;;-4.60;92.00;;;;;;939851;149;27329;-79
2022/12/13 02:03:27;;;;;;;36.87;20.30;;;-4.60;92.00;;;;;;936298;149;27369;-79
2022/12/13 02:05:59;;;;;;;29.67;17.77;;;-4.70;91.90;;;;;;938855;149;27354;-79
2022/12/13 02:08:26;;;;;;;30.97;20.00;;;-4.70;91.90;;;;;;916213;149;27869;-79
2022/12/13 02:10:53;;;;;;;33.73;21.33;;;-4.70;91.90;;;;;;937562;149;27357;-78
2022/12/13 02:13:19;;;;;;;33.83;20.07;;;-4.80;91.90;;;;;;934715;149;27336;-79
2022/12/13 02:16:06;;;;;;;30.53;19.73;;;-4.80;91.90;;;;;;934728;153;27333;-79
2022/12/13 02:18:57;;;;;;;34.57;19.20;;;-4.80;92.00;;;;;;930475;152;27468;-79
2022/12/13 02:21:33;;;;;;;37.60;21.07;;;-4.80;92.00;;;;;;915778;153;27812;-78
2022/12/13 02:24:08;;;;;;;32.43;19.63;;;-4.80;92.00;;;;;;939337;151;27802;-78
2022/12/13 02:26:47;;;;;;;35.30;20.20;;;-4.90;92.00;;;;;;934050;152;27271;-78
2022/12/13 02:29:35;;;;;;;32.97;19.03;;;-4.90;92.10;;;;;;922407;152;27463;-78
2022/12/13 02:32:04;;;;;;;28.47;18.47;;;-4.90;92.10;;;;;;935673;152;29063;-78
2022/12/13 02:34:30;;;;;;;33.27;19.53;;;-4.90;92.20;;;;;;935788;152;27416;-79
2022/12/13 02:37:00;;;;;;;33.60;19.43;;;-4.90;92.30;;;;;;932082;152;27344;-78
2022/12/13 02:39:32;;;;;;;27.93;17.67;;;-5.00;92.30;;;;;;922251;154;27255;-79
2022/12/13 02:42:04;;;;;;;36.03;19.33;;;-4.90;92.70;;;;;;940179;151;27441;-79
2022/12/13 02:44:40;;;;;;;30.80;18.10;;;-4.90;92.40;;;;;;935131;152;27310;-78
2022/12/13 02:47:07;;;;;;;30.30;17.50;;;-4.90;92.40;;;;;;938395;152;27818;-79
2022/12/13 02:49:33;;;;;;;34.70;18.13;;;-4.90;92.50;;;;;;943489;149;27301;-79
2022/12/13 02:52:00;;;;;;;27.70;18.13;;;-4.90;92.50;;;;;;935213;150;27825;-78
2022/12/13 02:54:26;;;;;;;30.50;17.03;;;-4.90;92.50;;;;;;920159;152;27387;-78
2022/12/13 02:56:56;;;;;;;32.13;16.83;;;-5.00;92.50;;;;;;940359;151;27282;-78
2022/12/13 02:59:22;;;;;;;29.77;18.50;;;-4.90;92.60;;;;;;942507;151;27384;-78
2022/12/13 03:02:25;;;;;;;28.43;17.60;;;-4.90;92.50;;;;;;927377;152;27330;-78
2022/12/13 03:08:23;;;;;;;30.53;18.37;;;-5.00;92.30;;;;;;926803;151;27383;-80
2022/12/13 03:11:01;;;;;;;28.53;16.33;;;-5.00;92.20;;;;;;932925;152;27283;-78
2022/12/13 03:13:37;;;;;;;30.87;17.43;;;-5.10;92.20;;;;;;934647;150;27931;-78
2022/12/13 03:16:22;;;;;;;28.27;17.03;;;-5.10;92.30;;;;;;941929;151;27372;-78
2022/12/13 03:18:48;;;;;;;27.20;16.17;;;-5.10;92.30;;;;;;925568;153;27483;-78
2022/12/13 03:21:15;;;;;;;24.50;15.27;;;-5.10;92.40;;;;;;944349;151;27402;-78
2022/12/13 03:23:42;;;;;;;27.97;16.07;;;-5.10;92.10;;;;;;944000;151;27380;-78
2022/12/13 03:26:11;;;;;;;25.40;16.20;;;-5.10;92.50;;;;;;946918;151;27401;-81
2022/12/13 03:28:37;;;;;;;29.87;18.30;;;-5.10;92.50;;;;;;945673;151;27372;-82
2022/12/13 03:31:04;;;;;;;27.40;17.57;;;-5.10;92.50;;;;;;932414;154;27416;-82
2022/12/13 03:33:30;;;;;;;32.07;15.73;;;-5.20;92.40;;;;;;931886;151;27384;-82
2022/12/13 03:35:57;;;;;;;30.33;17.13;;;-5.20;92.40;;;;;;944341;151;27292;-81
2022/12/13 03:38:24;;;;;;;27.87;15.50;;;-5.20;92.40;;;;;;945503;151;27305;-80
2022/12/13 03:40:50;;;;;;;28.33;17.83;;;-5.10;92.40;;;;;;946293;151;27448;-82
2022/12/13 03:43:17;;;;;;;34.30;17.97;;;-5.20;92.30;;;;;;943210;151;27322;-82
2022/12/13 03:45:43;;;;;;;32.27;17.57;;;-5.20;92.20;;;;;;944487;151;27289;-82
2022/12/13 03:48:10;;;;;;;31.80;17.90;;;-5.20;92.00;;;;;;945549;151;27314;-81
2022/12/13 03:50:37;;;;;;;31.30;18.30;;;-5.20;91.90;;;;;;945628;151;27311;-81
2022/12/13 03:53:03;;;;;;;27.90;17.43;;;-5.20;91.70;;;;;;941116;151;27349;-79
2022/12/13 03:55:30;;;;;;;28.37;17.43;;;-5.20;91.60;;;;;;940886;151;27341;-79
2022/12/13 03:57:56;;;;;;;29.57;17.33;;;-5.30;91.50;;;;;;940689;151;27311;-79
2022/12/13 04:00:23;;;;;;;31.27;17.57;;;-5.30;91.40;;;;;;928720;151;27333;-79
2022/12/13 04:02:50;;;;;;;28.30;17.37;;;-5.30;91.30;;;;;;942397;149;27623;-79
2022/12/13 04:05:16;;;;;;;29.97;16.57;;;-5.40;91.20;;;;;;926415;151;27326;-79
2022/12/13 04:07:43;;;;;;;28.57;17.30;;;-5.50;91.20;;;;;;944693;151;27483;-79
2022/12/13 04:10:09;;;;;;;29.57;18.10;;;-5.50;91.20;;;;;;945192;151;29436;-79
2022/12/13 04:15:21;;;;;;;28.17;18.20;;;-5.50;91.20;;;;;;941000;148;27355;-79
2022/12/13 04:17:47;;;;;;;26.17;15.60;;;-5.60;91.20;;;;;;935402;151;27324;-79
2022/12/13 04:20:14;;;;;;;27.60;16.73;;;-5.60;91.20;;;;;;924975;151;27376;-79
2022/12/13 04:22:40;;;;;;;28.70;16.67;;;-5.60;91.20;;;;;;941470;151;27349;-79
2022/12/13 04:25:07;;;;;;;27.47;17.07;;;-5.60;91.30;;;;;;935926;152;27307;-79
2022/12/13 04:27:34;;;;;;;29.93;16.07;;;-5.70;91.30;;;;;;934599;152;27431;-79
2022/12/13 04:30:00;;;;;;;26.80;16.63;;;-5.70;91.40;;;;;;923856;151;27321;-79
2022/12/13 04:32:27;;;;;;;26.87;15.50;;;-5.70;91.50;;;;;;939021;151;27337;-79
2022/12/13 04:34:53;;;;;;;27.70;15.93;;;-5.70;91.50;;;;;;941332;151;27874;-79
2022/12/13 04:37:20;;;;;;;27.17;15.67;;;-5.70;91.50;;;;;;941022;149;27290;-79
2022/12/13 04:39:47;;;;;;;25.10;15.77;;;-5.70;91.50;;;;;;927229;152;27447;-79
2022/12/13 04:42:13;;;;;;;32.70;16.23;;;-5.70;91.50;;;;;;920671;154;27338;-79
2022/12/13 04:44:40;;;;;;;27.60;16.07;;;-5.70;91.60;;;;;;924145;154;27303;-79
2022/12/13 04:47:06;;;;;;;27.60;15.27;;;-5.70;91.60;;;;;;924571;152;27462;-79
2022/12/13 04:49:33;;;;;;;29.13;15.60;;;-5.70;91.60;;;;;;924251;154;27365;-79
2022/12/13 04:52:00;;;;;;;27.63;14.60;;;-5.70;91.70;;;;;;923971;154;27330;-79
2022/12/13 04:54:26;;;;;;;23.80;15.43;;;-5.70;91.70;;;;;;922102;154;27354;-79
2022/12/13 04:56:53;;;;;;;26.50;15.30;;;-5.70;91.70;;;;;;940278;151;27321;-79
2022/12/13 04:59:19;;;;;;;23.67;15.97;;;-5.70;91.70;;;;;;940515;151;27360;-79
2022/12/13 05:01:46;;;;;;;28.00;16.40;;;-5.70;91.70;;;;;;925032;154;27470;-79
2022/12/13 05:04:12;;;;;;;29.53;16.40;;;-5.80;91.80;;;;;;922756;154;27299;-79
2022/12/13 05:06:39;;;;;;;24.77;16.03;;;-5.80;91.80;;;;;;924209;154;27267;-79
2022/12/13 05:09:06;;;;;;;27.27;16.40;;;-5.70;91.80;;;;;;941956;150;27453;-79
2022/12/13 05:11:32;;;;;;;28.97;16.40;;;-5.70;91.80;;;;;;923251;154;27334;-79
2022/12/13 05:13:59;;;;;;;27.43;15.17;;;-5.80;91.80;;;;;;924983;154;27360;-79
2022/12/13 05:16:25;;;;;;;25.13;15.23;;;-5.80;91.80;;;;;;935924;149;27395;-79
2022/12/13 05:18:52;;;;;;;24.50;14.67;;;-5.80;91.80;;;;;;940632;149;27416;-79
2022/12/13 05:21:19;;;;;;;26.40;14.50;;;-5.70;92.00;;;;;;937302;149;27298;-79
2022/12/13 05:23:45;;;;;;;26.73;15.73;;;-5.70;92.00;;;;;;938752;149;27451;-79
2022/12/13 05:26:12;;;;;;;29.20;15.43;;;-5.70;92.10;;;;;;938754;149;27354;-79
2022/12/13 05:28:38;;;;;;;28.77;15.50;;;-5.70;92.20;;;;;;939342;149;27374;-79
2022/12/13 05:31:08;;;;;;;33.33;17.67;;;-5.70;92.20;;;;;;937285;149;27454;-79
2022/12/13 05:33:34;;;;;;;27.27;15.77;;;-5.70;92.20;;;;;;936520;149;27427;-79
2022/12/13 05:36:01;;;;;;;27.13;14.60;;;-5.70;92.20;;;;;;938506;149;27329;-79
2022/12/13 05:38:28;;;;;;;25.57;14.57;;;-5.70;92.10;;;;;;936360;149;27353;-79
2022/12/13 05:40:54;;;;;;;28.53;15.53;;;-5.70;92.10;;;;;;939287;149;27459;-79
2022/12/13 05:43:22;;;;;;;26.20;15.73;;;-5.70;92.10;;;;;;938197;149;27417;-79
2022/12/13 05:45:47;;;;;;;26.20;14.90;;;-5.70;92.00;;;;;;938170;149;27389;-79
2022/12/13 05:48:14;;;;;;;25.70;15.63;;;-5.70;91.90;;;;;;939944;149;27332;-79
2022/12/13 05:50:41;;;;;;;23.47;15.20;;;-5.70;91.80;;;;;;937422;149;27340;-79
2022/12/13 05:53:07;;;;;;;27.23;15.73;;;-5.70;91.80;;;;;;939180;149;27445;-79
2022/12/13 05:55:34;;;;;;;26.27;14.17;;;-5.70;91.70;;;;;;939259;149;27338;-79
2022/12/13 05:58:00;;;;;;;28.37;16.17;;;-5.80;91.70;;;;;;938277;149;27309;-79
2022/12/13 06:00:27;;;;;;;28.90;15.20;;;-5.80;91.60;;;;;;939939;149;27347;-79
2022/12/13 06:02:54;;;;;;;26.90;16.07;;;-5.80;91.60;;;;;;939722;149;27446;-79
2022/12/13 06:05:20;;;;;;;30.37;15.23;;;-5.80;91.50;;;;;;938529;149;27393;-79
2022/12/13 06:07:50;;;;;;;24.27;15.67;;;-5.80;91.50;;;;;;937359;149;27345;-79
2022/12/13 06:10:13;;;;;;;26.10;15.17;;;-5.80;91.40;;;;;;936359;151;27434;-79
2022/12/13 06:12:40;;;;;;;28.00;14.20;;;-5.90;91.30;;;;;;937858;149;27321;-79
2022/12/13 06:15:07;;;;;;;29.63;16.03;;;-5.90;91.30;;;;;;938543;149;27403;-79
2022/12/13 06:17:33;;;;;;;23.13;14.63;;;-5.90;91.30;;;;;;938465;149;27411;-79
2022/12/13 06:20:00;;;;;;;22.00;13.70;;;-5.90;91.30;;;;;;937102;149;27361;-79
2022/12/13 06:22:26;;;;;;;25.67;14.30;;;-6.00;91.20;;;;;;938413;149;27982;-79
2022/12/13 06:24:53;;;;;;;27.57;14.37;;;-6.00;91.20;;;;;;938022;149;27362;-79
2022/12/13 06:27:20;;;;;;;26.23;14.97;;;-6.00;91.20;;;;;;936202;149;27467;-79
2022/12/13 06:29:46;;;;;;;27.00;14.17;;;-6.00;91.30;;;;;;939172;149;27297;-79
2022/12/13 06:32:13;;;;;;;25.70;14.60;;;-6.00;91.30;;;;;;936510;149;27462;-79
2022/12/13 06:34:39;;;;;;;23.80;13.97;;;-6.00;91.40;;;;;;937050;149;27385;-79
2022/12/13 06:37:06;;;;;;;24.20;14.50;;;-6.10;91.40;;;;;;938985;149;27325;-79
2022/12/13 06:39:33;;;;;;;24.60;14.47;;;-6.10;91.40;;;;;;939994;149;27310;-79
2022/12/13 06:41:59;;;;;;;26.27;16.50;;;-6.10;91.70;;;;;;939373;149;27367;-79
2022/12/13 06:44:26;;;;;;;29.37;16.47;;;-6.10;91.40;;;;;;939124;149;27458;-79
2022/12/13 06:46:52;;;;;;;31.93;18.97;;;-6.10;91.50;;;;;;938889;149;27365;-79
2022/12/13 06:49:19;;;;;;;32.47;18.20;;;-6.10;91.60;;;;;;936104;149;27425;-79
2022/12/13 06:51:45;;;;;;;30.67;16.23;;;-6.10;91.80;;;;;;938074;149;27333;-79
2022/12/13 06:54:12;;;;;;;30.57;16.83;;;-6.10;91.90;;;;;;936836;149;27433;-79
2022/12/13 06:56:39;;;;;;;31.43;17.20;;;-6.00;92.00;;;;;;939500;149;27325;-79
2022/12/13 06:59:06;;;;;;;31.83;17.50;;;-6.00;92.00;;;;;;939250;149;27474;-79
2022/12/13 07:01:32;;;;;;;32.83;17.83;;;-6.00;92.00;;;;;;938163;149;27447;-79
2022/12/13 07:03:58;;;;;;;31.23;17.47;;;-6.00;92.10;;;;;;935719;149;27461;-79
2022/12/13 07:06:25;;;;;;;28.20;17.57;;;-6.00;92.10;;;;;;938821;149;27395;-79
2022/12/13 07:08:52;;;;;;;28.80;16.57;;;-6.00;92.20;;;;;;937994;149;27352;-79
2022/12/13 07:11:18;;;;;;;27.40;16.90;;;-6.00;92.30;;;;;;940718;149;27507;-79
2022/12/13 07:13:45;;;;;;;27.33;14.90;;;-5.90;92.40;;;;;;938721;149;27385;-79
2022/12/13 07:16:11;;;;;;;27.10;15.37;;;-5.90;92.50;;;;;;938409;149;27330;-78
2022/12/13 07:18:38;;;;;;;28.10;16.40;;;-5.90;92.60;;;;;;927005;154;27289;-78
2022/12/13 07:21:07;;;;;;;27.50;15.20;;;-5.80;92.70;;;;;;926205;154;27364;-78
2022/12/13 07:23:34;;;;;;;26.93;16.53;;;-5.80;92.80;;;;;;925245;152;27395;-78
2022/12/13 07:26:01;;;;;;;25.60;14.80;;;-5.70;93.00;;;;;;925966;152;27376;-78
2022/12/13 07:28:27;;;;;;;25.27;14.20;;;-5.70;93.10;;;;;;929591;151;27353;-78
2022/12/13 07:30:54;;;;;;;25.27;16.00;;;-5.60;93.20;;;;;;941989;149;27378;-78
2022/12/13 07:33:20;;;;;;;30.17;17.13;;;-5.60;93.40;;;;;;942434;151;27407;-78
2022/12/13 07:35:47;;;;;;;28.83;17.57;;;-5.50;93.60;;;;;;926860;154;27378;-78
2022/12/13 07:38:13;;;;;;;27.27;16.00;;;-5.40;93.70;;;;;;940571;148;27378;-78
2022/12/13 07:40:40;;;;;;;27.57;15.47;;;-5.40;93.80;;;;;;932843;152;27390;-78
2022/12/13 07:43:07;;;;;;;33.37;17.97;;;-5.30;93.90;;;;;;942256;151;27328;-78
2022/12/13 07:45:33;;;;;;;23.90;14.67;;;-5.20;94.00;;;;;;936024;151;27247;-78
2022/12/13 07:48:00;;;;;;;25.70;14.70;;;-5.10;94.00;;;;;;933941;152;27345;-78
2022/12/13 07:50:26;;;;;;;29.60;16.80;;;-5.10;94.10;;;;;;936518;150;27354;-78
2022/12/13 07:52:53;;;;;;;32.60;18.90;;;-5.00;94.10;;;;;;925745;154;28562;-77
2022/12/13 07:55:20;;;;;;;29.57;17.70;;;-4.90;94.00;;;;;;920196;155;27495;-77
2022/12/13 07:57:46;;;;;;;28.17;15.90;;;-4.80;94.10;;;;;;938519;149;27309;-77
2022/12/13 08:00:13;;;;;;;30.03;16.57;;;-4.70;94.60;;;;;;940845;148;27467;-77
2022/12/13 08:02:40;;;;;;;36.43;18.17;;;-4.60;94.70;;;;;;941436;149;27353;-77
2022/12/13 08:05:06;;;;;;;27.17;16.13;;;-4.40;95.30;;;;;;944982;151;27436;-77
2022/12/13 08:07:33;;;;;;;26.03;16.57;;;-4.20;96.30;;;;;;924553;154;27315;-78
2022/12/13 08:09:59;;;;;;;28.13;16.67;;;-3.90;96.90;;;;;;926923;151;27422;-77
2022/12/13 08:12:26;;;;;;;27.90;17.73;;;-3.60;96.90;;;;;;926093;154;27302;-78
2022/12/13 08:14:52;;;;;;;32.37;17.40;;;-3.40;96.40;;;;;;926883;154;27329;-78
2022/12/13 08:17:19;;;;;;;26.90;15.97;;;-3.20;95.30;;;;;;944511;147;27401;-78
2022/12/13 08:19:45;;;;;;;30.40;17.00;;;-3.10;94.50;;;;;;938594;149;28586;-77
2022/12/13 08:22:13;;;;;;;24.93;15.17;;;-3.00;93.90;;;;;;957395;146;27428;-77
2022/12/13 08:24:39;;;;;;;25.60;16.00;;;-2.90;93.40;;;;;;947676;149;27309;-77
2022/12/13 08:27:05;;;;;;;25.37;14.77;;;-2.90;93.10;;;;;;944695;151;27272;-78
2022/12/13 08:29:33;;;;;;;21.37;14.37;;;-2.80;92.80;;;;;;946099;150;27446;-78
2022/12/13 08:31:59;;;;;;;21.50;14.03;;;-2.80;92.80;;;;;;944403;151;27283;-78
2022/12/13 08:34:26;;;;;;;22.37;14.20;;;-2.80;92.70;;;;;;945904;151;27313;-78
2022/12/13 08:36:52;;;;;;;25.47;12.80;;;-2.70;92.90;;;;;;945423;150;27377;-78
2022/12/13 08:39:18;;;;;;;21.80;14.13;;;-2.60;93.40;;;;;;943490;151;27346;-77
2022/12/13 08:41:45;;;;;;;24.57;14.57;;;-2.40;94.30;;;;;;945130;151;27734;-77
2022/12/13 08:44:11;;;;;;;23.23;13.80;;;-2.30;94.80;;;;;;943891;150;27391;-77
2022/12/13 08:46:38;;;;;;;21.10;12.43;;;-2.10;94.50;;;;;;944770;151;27357;-78
2022/12/13 08:49:05;;;;;;;20.17;12.80;;;-2.00;93.90;;;;;;944820;151;27246;-78
2022/12/13 08:51:31;;;;;;;18.50;12.07;;;-1.80;93.70;;;;;;944802;150;27317;-77
2022/12/13 08:53:58;;;;;;;22.07;12.63;;;-1.70;93.90;;;;;;943878;151;27483;-78
2022/12/13 08:56:24;;;;;;;20.53;12.50;;;-1.60;94.00;;;;;;944004;151;27323;-78
2022/12/13 08:58:51;;;;;;;18.43;12.87;;;-1.50;93.50;;;;;;945202;148;27296;-78
2022/12/13 09:01:18;;;;;;;20.47;12.83;;;-1.40;92.90;;;;;;942582;151;27275;-78
2022/12/13 09:03:44;;;;;;;17.27;11.80;;;-1.40;92.20;;;;;;945795;151;27315;-78
2022/12/13 09:06:14;;;;;;;19.50;12.17;;;-1.40;91.70;;;;;;945310;151;27341;-78
2022/12/13 09:08:40;;;;;;;17.83;11.80;;;-1.40;91.40;;;;;;943817;151;27401;-79
2022/12/13 09:11:07;;;;;;;17.90;12.13;;;-1.40;91.20;;;;;;944496;151;27319;-77
2022/12/13 09:13:33;;;;;;;19.10;12.03;;;-1.40;91.20;;;;;;946019;150;27385;-78
2022/12/13 09:16:09;;;;;;;18.53;12.03;;;-1.50;91.10;;;;;;945837;150;27315;-78
2022/12/13 09:18:35;;;;;;;18.43;12.33;;;-1.50;91.10;;;;;;943058;148;27386;-78
2022/12/13 09:21:08;;;;;;;20.03;12.93;;;-1.50;91.10;;;;;;945173;151;28389;-77
2022/12/13 09:23:34;;;;;;;19.50;12.07;;;-1.50;91.30;;;;;;944454;151;27272;-77
2022/12/13 09:26:01;;;;;;;22.90;13.23;;;-1.60;91.30;;;;;;945505;150;27350;-77
2022/12/13 09:28:28;;;;;;;18.90;12.00;;;-1.60;91.80;;;;;;944875;150;27295;-77
2022/12/13 09:30:54;;;;;;;20.40;13.00;;;-1.60;91.50;;;;;;944074;148;27363;-77
2022/12/13 09:33:20;;;;;;;18.63;11.97;;;-1.60;91.60;;;;;;943820;150;27319;-77
2022/12/13 09:35:47;;;;;;;15.10;11.63;;;-1.50;91.80;;;;;;942979;151;27282;-77
2022/12/13 09:38:14;;;;;;;20.10;12.20;;;-1.50;91.90;;;;;;945721;150;27268;-77
2022/12/13 09:40:40;;;;;;;17.80;12.60;;;-1.50;92.10;;;;;;945341;150;27323;-77
2022/12/13 09:43:07;;;;;;;23.37;14.03;;;-1.40;92.10;;;;;;945391;151;27330;-77
2022/12/13 09:45:34;;;;;;;21.50;13.97;;;-1.40;92.20;;;;;;941397;149;27677;-77
2022/12/13 09:48:00;;;;;;;21.27;13.87;;;-1.40;92.60;;;;;;956354;146;27338;-77
2022/12/13 09:50:27;;;;;;;17.37;12.83;;;-1.30;92.40;;;;;;947379;148;27297;-77
2022/12/13 09:52:53;;;;;;;21.40;13.43;;;-1.30;92.50;;;;;;948875;150;27399;-77
2022/12/13 09:55:32;;;;;;;24.30;13.67;;;-1.20;92.70;;;;;;947269;150;27381;-77
2022/12/13 09:57:58;;;;;;;19.63;13.13;;;-1.20;92.80;;;;;;944499;150;27339;-77
2022/12/13 10:00:26;;;;;;;16.20;11.63;;;-1.10;93.10;;;;;;943229;150;27373;-77
2022/12/13 10:02:54;;;;;;;19.50;11.70;;;-1.00;93.30;;;;;;943560;148;27413;-77
2022/12/13 10:05:20;;;;;;;18.77;12.90;;;-0.90;93.50;;;;;;944207;150;27428;-77
2022/12/13 10:07:47;;;;;;;20.30;12.97;;;-0.80;93.60;;;;;;945121;150;27355;-77
2022/12/13 10:10:14;;;;;;;17.90;12.23;;;-0.70;93.70;;;;;;944812;151;27494;-77
2022/12/13 10:12:40;;;;;;;17.97;12.63;;;-0.60;93.80;;;;;;946050;151;27302;-77
2022/12/13 10:15:07;;;;;;;15.97;11.60;;;-0.50;93.80;;;;;;944184;150;27298;-77
2022/12/13 10:17:33;;;;;;;15.23;11.37;;;-0.40;93.80;;;;;;944638;148;27303;-77
2022/12/13 10:20:00;;;;;;;17.33;11.43;;;-0.30;93.80;;;;;;944307;150;27398;-77
2022/12/13 10:22:27;;;;;;;16.77;11.10;;;-0.20;93.70;;;;;;945443;151;27890;-77
2022/12/13 10:25:05;;;;;;;14.13;10.83;;;-0.10;93.50;;;;;;942708;151;27289;-77
2022/12/13 10:27:35;;;;;;;18.27;10.80;;;0.00;93.40;;;;;;945792;151;27319;-77
2022/12/13 10:30:01;;;;;;;15.70;11.33;;;0.10;93.40;;;;;;943342;150;27316;-77
2022/12/13 10:32:27;;;;;;;13.80;10.73;;;0.20;93.40;;;;;;944222;151;27488;-77
2022/12/13 10:34:54;;;;;;;16.90;11.30;;;0.30;93.40;;;;;;944197;151;28623;-77
2022/12/13 10:37:23;;;;;;;16.30;10.70;;;0.40;93.40;;;;;;946184;149;27300;-77
2022/12/13 10:39:50;;;;;;;17.13;11.43;;;0.50;93.40;;;;;;943810;151;27412;-78
2022/12/13 10:42:16;;;;;;;16.03;11.40;;;0.60;93.20;;;;;;945208;150;27322;-78
2022/12/13 10:44:43;;;;;;;16.93;11.60;;;0.70;93.10;;;;;;942562;150;27353;-77
2022/12/13 10:47:10;;;;;;;18.47;11.47;;;0.80;93.00;;;;;;944156;151;28445;-78
2022/12/13 10:49:39;;;;;;;16.33;12.47;;;0.80;92.90;;;;;;943376;151;27384;-77
2022/12/13 10:52:06;;;;;;;20.40;12.27;;;0.90;92.70;;;;;;940671;151;27316;-77
2022/12/13 10:54:32;;;;;;;17.33;11.40;;;1.00;92.70;;;;;;944472;150;27294;-78
2022/12/13 10:56:59;;;;;;;15.97;11.60;;;1.10;92.70;;;;;;943745;150;27449;-78
2022/12/13 10:59:26;;;;;;;15.93;11.70;;;1.10;92.30;;;;;;945590;151;27882;-77
2022/12/13 11:01:52;;;;;;;16.13;11.67;;;1.20;92.50;;;;;;944371;151;27405;-78
2022/12/13 11:04:28;;;;;;;16.93;11.67;;;1.30;92.30;;;;;;943252;150;27306;-78
2022/12/13 11:06:54;;;;;;;17.73;12.90;;;1.30;92.10;;;;;;942990;150;27315;-78
2022/12/13 11:09:26;;;;;;;17.57;11.73;;;1.40;92.00;;;;;;944531;148;27390;-77
2022/12/13 11:11:53;;;;;;;16.80;12.13;;;1.40;91.90;;;;;;942654;151;27580;-78
2022/12/13 11:14:20;;;;;;;16.83;11.77;;;1.40;91.70;;;;;;944613;150;28232;-78
2022/12/13 11:16:49;;;;;;;17.23;12.20;;;1.40;91.60;;;;;;945320;150;27382;-78
2022/12/13 11:19:22;;;;;;;18.03;12.03;;;1.40;91.40;;;;;;944974;150;27287;-78
2022/12/13 11:21:48;;;;;;;17.50;11.07;;;1.50;91.40;;;;;;946654;149;27444;-78
2022/12/13 11:24:15;;;;;;;17.43;12.50;;;1.50;91.40;;;;;;947814;149;27318;-78
2022/12/13 11:26:44;;;;;;;18.60;11.93;;;1.50;91.30;;;;;;947318;150;27325;-78
2022/12/13 11:29:08;;;;;;;15.80;10.50;;;1.50;91.30;;;;;;948194;147;27270;-78
2022/12/13 11:31:53;;;;;;;14.97;11.10;;;1.50;91.20;;;;;;942302;147;27279;-78
2022/12/13 11:34:40;;;;;;;15.23;11.20;;;1.60;91.10;;;;;;944861;150;27354;-78
2022/12/13 11:37:22;;;;;;;14.97;10.60;;;1.60;90.90;;;;;;947199;149;27354;-78
2022/12/13 11:39:51;;;;;;;14.30;11.10;;;1.60;90.80;;;;;;947522;150;27279;-80
2022/12/13 11:42:30;;;;;;;16.13;11.23;;;1.60;90.70;;;;;;946863;150;27326;-80
2022/12/13 11:44:59;;;;;;;15.37;11.10;;;1.50;90.60;;;;;;947723;149;27277;-78
2022/12/13 11:47:26;;;;;;;15.47;10.97;;;1.50;90.60;;;;;;950543;150;27350;-78
2022/12/13 11:49:52;;;;;;;14.63;10.93;;;1.50;90.50;;;;;;947280;149;27302;-78
2022/12/13 11:52:25;;;;;;;14.90;11.20;;;1.50;90.40;;;;;;948512;150;27256;-78
2022/12/13 11:54:57;;;;;;;16.93;11.40;;;1.50;90.50;;;;;;947427;150;27410;-78
2022/12/13 11:57:48;;;;;;;15.07;10.73;;;1.50;90.40;;;;;;951673;150;27430;-78
2022/12/13 12:00:26;;;;;;;15.17;10.97;;;1.60;90.40;;;;;;950933;150;27306;-77
2022/12/13 12:02:53;;;;;;;15.67;11.60;;;1.60;90.50;;;;;;949866;148;27368;-80
2022/12/13 12:05:28;;;;;;;16.63;11.83;;;1.60;90.60;;;;;;949158;148;27243;-79
2022/12/13 12:07:54;;;;;;;21.00;11.10;;;1.60;90.60;;;;;;947469;148;27350;-80
2022/12/13 12:10:23;;;;;;;17.40;10.77;;;1.60;90.70;;;;;;946752;150;28610;-79
2022/12/13 12:12:50;;;;;;;17.07;10.73;;;1.60;90.80;;;;;;948155;150;27307;-80
2022/12/13 12:15:29;;;;;;;17.57;12.60;;;1.60;90.80;;;;;;949013;149;27390;-80
2022/12/13 12:17:55;;;;;;;18.27;11.20;;;1.70;90.80;;;;;;948639;149;27278;-80
2022/12/13 12:20:28;;;;;;;16.07;11.83;;;1.70;90.70;;;;;;950624;148;27401;-79
2022/12/13 12:22:57;;;;;;;15.53;12.10;;;1.70;90.70;;;;;;926087;150;27372;-79
2022/12/13 12:25:30;;;;;;;14.83;10.40;;;1.80;90.70;;;;;;947588;149;27302;-79
2022/12/13 12:28:33;;;;;;;16.20;11.77;;;1.80;90.60;;;;;;946234;149;27290;-79
2022/12/13 12:31:03;;;;;;;15.73;10.67;;;1.80;90.50;;;;;;949056;150;27248;-77
2022/12/13 12:33:54;;;;;;;15.60;11.13;;;1.80;90.40;;;;;;947922;149;27422;-80
2022/12/13 12:36:21;;;;;;;14.17;10.27;;;1.80;90.40;;;;;;949892;148;27309;-79
2022/12/13 12:38:53;;;;;;;18.60;11.77;;;1.80;90.40;;;;;;946780;148;27350;-79